This is the latest recevied weather packets stored in our database for station/object DH1NAI-6. If no packets are shown the sender has not sent any weather packets the latest 10 day(s).
| Time | Temp. | Humidity | Pressure | Rain* | Wind** | Luminosity | Snow |
|---|---|---|---|---|---|---|---|
| 1777858112 | 12.22° C | 76% | 1012.2 hPa | 0 mm | - | 0 W/m² | - |
| 1777857507 | 12.78° C | 75% | 1012 hPa | 0 mm | - | 0 W/m² | - |
| 1777856291 | 13.33° C | 73% | 1012 hPa | 0 mm | - | 0 W/m² | - |
| 1777855682 | 13.33° C | 72% | 1012 hPa | 0 mm | - | 0 W/m² | - |
| 1777855058 | 12.78° C | 74% | 1012.1 hPa | 0 mm | - | 0 W/m² | - |
| 1777854450 | 12.78° C | 77% | 1012.1 hPa | 0 mm | - | 0 W/m² | - |
| 1777853842 | 12.22° C | 79% | 1011.9 hPa | 0 mm | - | 0 W/m² | - |
| 1777853218 | 11.11° C | 85% | 1012 hPa | 0 mm | - | 0 W/m² | - |
| 1777852594 | 10.56° C | 89% | 1011.7 hPa | 0 mm | - | 0 W/m² | - |
| 1777851986 | 10.56° C | 90% | 1011.2 hPa | 0 mm | - | 0 W/m² | - |
| 1777851379 | 10° C | 92% | 1011.6 hPa | 0 mm | - | 0 W/m² | - |
| 1777850770 | 10.56° C | 91% | 1011.7 hPa | 0 mm | - | 0 W/m² | - |
| 1777850163 | 10.56° C | 89% | 1012 hPa | 0 mm | - | 0 W/m² | - |
| 1777849554 | 10° C | 90% | 1011.6 hPa | 0 mm | - | 0 W/m² | - |
| 1777848947 | 10.56° C | 89% | 1011.9 hPa | 0 mm | - | 0 W/m² | - |
| 1777848332 | 10.56° C | 90% | 1011.9 hPa | 0 mm | - | 0 W/m² | - |
| 1777847731 | 10.56° C | 90% | 1011.8 hPa | 0 mm | - | 0 W/m² | - |
| 1777847122 | 10° C | 89% | 1011.9 hPa | 0 mm | - | 0 W/m² | - |
| 1777846514 | 10° C | 91% | 1011.8 hPa | 0 mm | - | 0 W/m² | - |
| 1777845906 | 9.44° C | 90% | 1011.6 hPa | 0 mm | - | 0 W/m² | - |
| 1777845298 | 9.44° C | 90% | 1011.6 hPa | 0 mm | - | 0 W/m² | - |
| 1777844690 | 9.44° C | 90% | 1011.6 hPa | 0 mm | - | 0 W/m² | - |
| 1777844083 | 9.44° C | 90% | 1011.5 hPa | 0 mm | - | 0 W/m² | - |
| 1777843472 | 9.44° C | 89% | 1011.6 hPa | 0 mm | - | 0 W/m² | - |
| 1777842867 | 9.44° C | 89% | 1011.5 hPa | 0 mm | - | 0 W/m² | - |
* Rain latest hour (hover to see other rain measurements)
** Current wind speed in m/s (hover to see current wind gust speed)